createdAt,value
2023-01-04T00:00:10.389Z,1.33
2023-01-04T00:05:14.172Z,5.32
2023-01-04T00:10:19.519Z,2.55
2023-01-04T00:15:23.343Z,6.15
2023-01-04T00:20:27.071Z,2.17
2023-01-04T00:25:32.172Z,3.35
2023-01-04T00:30:35.993Z,6.03
2023-01-04T00:35:46.747Z,5.28
2023-01-04T00:40:51.944Z,4.82
2023-01-04T00:45:55.799Z,4.40
2023-01-04T00:51:00.037Z,3.58
2023-01-04T00:56:05.685Z,2.80
2023-01-04T01:01:10.199Z,2.55
2023-01-04T01:06:14.043Z,3.00
2023-01-04T01:11:19.666Z,2.80
2023-01-04T01:16:51.655Z,2.08
2023-01-04T01:21:48.711Z,4.32
2023-01-04T01:26:56.412Z,2.47
2023-01-04T01:32:00.255Z,3.28
2023-01-04T01:37:04.198Z,4.13
2023-01-04T01:42:19.642Z,1.58
2023-01-04T01:47:26.448Z,3.60
2023-01-04T01:52:34.500Z,3.95
2023-01-04T01:57:39.893Z,0.90
2023-01-04T02:02:51.014Z,2.90
2023-01-04T02:07:55.332Z,2.30
2023-01-04T02:13:03.673Z,1.23
2023-01-04T02:18:12.388Z,2.53
2023-01-04T02:24:04.245Z,3.95
2023-01-04T02:29:51.220Z,5.20
2023-01-04T02:35:05.333Z,2.50
2023-01-04T02:40:18.326Z,1.88
2023-01-04T02:45:28.045Z,1.30
2023-01-04T02:50:37.114Z,3.05
2023-01-04T02:55:49.288Z,1.63
2023-01-04T03:01:18.017Z,5.95
2023-01-04T03:06:28.048Z,3.30
2023-01-04T03:11:56.968Z,5.63
2023-01-04T03:17:02.591Z,3.17
2023-01-04T03:22:30.267Z,4.28
2023-01-04T03:27:51.607Z,4.45
2023-01-04T03:33:25.416Z,6.40
2023-01-04T03:38:55.427Z,4.82
2023-01-04T03:44:24.802Z,6.35
2023-01-04T03:49:34.801Z,4.07
2023-01-04T03:54:42.942Z,3.45
2023-01-04T03:59:53.314Z,5.47
2023-01-04T04:05:14.704Z,3.05
2023-01-04T04:10:19.769Z,4.65
2023-01-04T04:15:23.495Z,2.65
2023-01-04T04:20:27.192Z,5.20
2023-01-04T04:25:32.231Z,5.30
2023-01-04T04:30:35.885Z,3.42
2023-01-04T04:35:40.538Z,4.65
2023-01-04T04:41:03.052Z,8.30
2023-01-04T04:46:07.897Z,2.35
2023-01-04T04:51:11.767Z,2.88
2023-01-04T04:56:17.514Z,2.75
2023-01-04T05:01:21.396Z,2.58
2023-01-04T05:06:25.585Z,3.83
2023-01-04T05:11:48.160Z,4.95
2023-01-04T05:16:52.062Z,6.10
2023-01-04T05:21:55.895Z,1.73
2023-01-04T05:27:00.969Z,2.63
2023-01-04T05:32:04.772Z,3.67
2023-01-04T05:37:08.518Z,2.92
2023-01-04T05:42:28.972Z,5.10
2023-01-04T05:47:32.681Z,1.48
2023-01-04T05:52:37.287Z,6.28
2023-01-04T05:57:42.519Z,2.28
2023-01-04T06:02:46.475Z,3.53
2023-01-04T06:07:51.085Z,1.40
2023-01-04T06:12:56.402Z,1.35
2023-01-04T06:18:00.110Z,3.35
2023-01-04T06:23:03.837Z,4.45
2023-01-04T06:28:08.972Z,3.38
2023-01-04T06:33:12.699Z,3.67
2023-01-04T06:38:16.393Z,1.25
2023-01-04T06:43:21.667Z,0.85
2023-01-04T06:48:25.326Z,0.75
2023-01-04T06:53:29.172Z,0.90
2023-01-04T06:58:34.262Z,2.20
2023-01-04T07:03:38.095Z,1.20
2023-01-04T07:08:41.813Z,1.77
2023-01-04T07:13:47.000Z,3.35
2023-01-04T07:18:50.709Z,2.92
2023-01-04T07:23:54.424Z,3.80
2023-01-04T07:29:17.916Z,2.45
2023-01-04T07:34:24.299Z,3.80
2023-01-04T07:39:28.097Z,2.67
2023-01-04T07:44:33.173Z,1.42
2023-01-04T07:49:36.903Z,2.40
2023-01-04T07:54:40.609Z,2.92
2023-01-04T07:59:45.738Z,3.45
2023-01-04T08:04:49.511Z,3.78
2023-01-04T08:09:53.238Z,3.10
2023-01-04T08:14:58.340Z,2.05
2023-01-04T08:20:02.612Z,2.03
2023-01-04T08:25:07.164Z,1.52
2023-01-04T08:30:12.768Z,2.58
2023-01-04T08:35:16.684Z,1.35
2023-01-04T08:40:20.618Z,1.77
2023-01-04T08:45:25.750Z,2.08
2023-01-04T08:50:30.303Z,4.03
2023-01-04T08:55:34.465Z,3.35
2023-01-04T09:00:39.871Z,4.60
2023-01-04T09:05:44.857Z,4.82
2023-01-04T09:10:48.655Z,1.00
2023-01-04T09:15:53.863Z,3.60
2023-01-04T09:20:58.024Z,4.32
2023-01-04T09:26:09.519Z,4.78
2023-01-04T09:31:17.066Z,4.15
2023-01-04T09:41:27.925Z,5.28
2023-01-04T09:46:40.392Z,1.13
2023-01-04T09:51:50.816Z,2.65
2023-01-04T09:56:58.347Z,6.13
2023-01-04T10:02:12.278Z,3.00
2023-01-04T10:07:22.613Z,3.67
2023-01-04T10:12:40.603Z,3.22
2023-01-04T10:23:39.169Z,4.05
2023-01-04T10:28:58.675Z,3.25
2023-01-04T10:34:18.744Z,1.55
2023-01-04T10:39:32.073Z,2.33
2023-01-04T10:44:44.280Z,1.73
2023-01-04T10:49:53.739Z,2.13
2023-01-04T10:55:02.087Z,1.60
2023-01-04T11:00:12.584Z,4.57
2023-01-04T11:05:25.003Z,5.55
2023-01-04T11:10:32.703Z,1.58
2023-01-04T11:15:37.488Z,0.70
2023-01-04T11:20:43.182Z,0.90
2023-01-04T11:25:55.775Z,1.45
2023-01-04T11:31:05.497Z,2.13
2023-01-04T11:36:10.897Z,1.08
2023-01-04T11:41:19.181Z,0.90
2023-01-04T11:46:25.216Z,0.82
2023-01-04T11:51:40.996Z,1.33
2023-01-04T11:57:00.786Z,1.30
2023-01-04T12:07:49.949Z,0.80
2023-01-04T12:12:54.552Z,0.85
2023-01-04T12:18:06.495Z,1.42
2023-01-04T12:23:13.356Z,1.25
2023-01-04T12:28:35.072Z,1.40
2023-01-04T12:33:40.606Z,2.28
2023-01-04T12:39:30.054Z,2.30
2023-01-04T12:45:16.887Z,2.42
2023-01-04T12:50:23.307Z,2.72
2023-01-04T12:55:52.381Z,2.38
2023-01-04T13:01:28.488Z,2.60
2023-01-04T13:06:37.021Z,2.97
2023-01-04T13:12:06.153Z,2.85
2023-01-04T13:17:19.172Z,3.75
2023-01-04T13:22:29.405Z,3.78
2023-01-04T13:27:34.187Z,2.97
2023-01-04T13:33:15.088Z,4.18
2023-01-04T13:38:03.450Z,3.03
2023-01-04T13:43:20.523Z,4.47
2023-01-04T13:53:32.042Z,5.13
2023-01-04T13:58:36.642Z,4.30
2023-01-04T14:03:46.212Z,5.65
2023-01-04T14:08:56.872Z,4.15
2023-01-04T14:14:00.811Z,5.95
2023-01-04T14:19:39.794Z,5.05
2023-01-04T14:25:10.989Z,5.25
2023-01-04T14:30:24.178Z,5.50
2023-01-04T14:35:31.833Z,5.72
2023-01-04T14:40:36.740Z,5.93
2023-01-04T14:45:40.717Z,7.53
2023-01-04T14:50:45.975Z,7.60
2023-01-04T14:55:49.728Z,7.18
2023-01-04T15:00:53.649Z,5.45
2023-01-04T15:05:58.941Z,3.35
2023-01-04T15:11:03.243Z,11.05
2023-01-04T15:16:08.057Z,9.95
2023-01-04T15:21:13.960Z,9.27
2023-01-04T15:26:17.723Z,8.18
2023-01-04T15:31:29.050Z,8.52
2023-01-04T15:36:38.773Z,11.68
2023-01-04T15:42:00.599Z,9.95
2023-01-04T15:47:04.548Z,11.75
2023-01-04T15:52:09.728Z,8.20
2023-01-04T15:57:14.311Z,8.85
2023-01-04T16:02:18.136Z,11.63
2023-01-04T16:07:23.357Z,9.15
2023-01-04T16:12:48.708Z,15.25
2023-01-04T16:17:56.697Z,11.75
2023-01-04T16:23:01.819Z,9.30
2023-01-04T16:28:06.583Z,13.98
2023-01-04T16:33:54.873Z,14.88
2023-01-04T16:39:00.214Z,12.50
2023-01-04T16:44:06.664Z,9.20
2023-01-04T16:49:13.503Z,12.57
2023-01-04T16:54:19.975Z,15.75
2023-01-04T16:59:23.781Z,13.53
2023-01-04T17:04:27.600Z,22.30
2023-01-04T17:09:32.944Z,20.20
2023-01-04T17:14:36.710Z,17.50
2023-01-04T17:19:40.519Z,17.58
2023-01-04T17:24:45.834Z,21.17
2023-01-04T17:29:49.765Z,21.60
2023-01-04T17:34:53.566Z,17.63
2023-01-04T17:39:58.931Z,16.23
2023-01-04T17:45:02.829Z,15.40
2023-01-04T17:50:09.737Z,28.67
2023-01-04T17:55:15.148Z,25.55
2023-01-04T18:00:19.467Z,28.73
2023-01-04T18:05:23.257Z,24.42
2023-01-04T18:10:41.388Z,28.27
2023-01-04T18:16:18.155Z,26.02
2023-01-04T18:21:28.484Z,22.05
2023-01-04T18:31:59.082Z,23.40
2023-01-04T18:37:03.032Z,33.83
2023-01-04T18:42:08.373Z,25.65
2023-01-04T18:47:13.433Z,19.73
2023-01-04T18:52:17.557Z,26.65
2023-01-04T18:57:22.993Z,21.05
2023-01-04T19:02:27.993Z,26.77
2023-01-04T19:07:32.047Z,21.77
2023-01-04T19:12:38.896Z,28.05
2023-01-04T19:17:42.863Z,28.25
2023-01-04T19:22:46.585Z,18.35
2023-01-04T19:27:51.753Z,18.65
2023-01-04T19:32:55.671Z,22.95
2023-01-04T19:38:00.109Z,16.15
2023-01-04T19:43:05.350Z,25.35
2023-01-04T19:48:09.114Z,25.73
2023-01-04T19:53:13.983Z,21.95
2023-01-04T19:58:19.132Z,18.77
2023-01-04T20:03:23.675Z,20.30
2023-01-04T20:08:27.458Z,22.67
2023-01-04T20:13:34.234Z,17.77
2023-01-04T20:18:38.789Z,28.83
2023-01-04T20:23:43.717Z,22.23
2023-01-04T20:28:48.945Z,17.33
2023-01-04T20:33:52.796Z,17.30
2023-01-04T20:38:58.211Z,19.55
2023-01-04T20:44:03.869Z,16.98
2023-01-04T20:49:07.566Z,19.02
2023-01-04T20:54:11.535Z,17.92
2023-01-04T20:59:16.773Z,16.13
2023-01-04T21:04:20.428Z,18.05
2023-01-04T21:09:24.160Z,20.88
2023-01-04T21:14:31.440Z,15.60
2023-01-04T21:19:35.737Z,18.42
2023-01-04T21:24:39.731Z,26.38
2023-01-04T21:29:58.259Z,19.63
2023-01-04T21:35:22.510Z,23.23
2023-01-04T21:40:26.255Z,24.65
2023-01-04T21:45:31.512Z,19.13
2023-01-04T21:50:35.878Z,17.80
2023-01-04T21:55:39.638Z,23.70
2023-01-04T22:00:44.702Z,18.83
2023-01-04T22:05:48.968Z,17.60
2023-01-04T22:10:56.091Z,22.35
2023-01-04T22:21:07.148Z,24.65
2023-01-04T22:26:11.274Z,24.52
2023-01-04T22:31:16.690Z,19.40
2023-01-04T22:36:23.429Z,22.95
2023-01-04T22:41:29.098Z,25.58
2023-01-04T22:46:35.789Z,23.25
2023-01-04T22:51:41.445Z,30.38
2023-01-04T22:56:45.200Z,17.20
2023-01-04T23:01:50.358Z,20.70
2023-01-04T23:06:54.638Z,16.13
2023-01-04T23:11:58.412Z,9.77
2023-01-04T23:17:03.704Z,28.60
2023-01-04T23:22:07.595Z,27.40
2023-01-04T23:27:11.363Z,22.83
2023-01-04T23:32:16.559Z,15.10
2023-01-04T23:37:20.658Z,17.17
2023-01-04T23:42:24.579Z,20.38
2023-01-04T23:47:29.711Z,28.58
2023-01-04T23:52:33.377Z,20.90
2023-01-04T23:57:37.207Z,15.43
